Time;durP1;ratioP1;P1;durP2;ratioP2;P2;SDS_P1;SDS_P2;PMS_P1;PMS_P2;Temp;Humidity;BMP_temperature;BMP_pressure;BME280_temperature;BME280_humidity;BME280_pressure;Samples;Min_cycle;Max_cycle;Signal;HPM_P1;HPM_P2
2021/12/16 00:08:59;;;;;;;24.77;17.40;;;;;;;8.63;100.00;102583.66;5006422;28;20252;-54
2021/12/16 00:19:28;;;;;;;24.60;16.83;;;;;;;8.63;100.00;102578.41;5006569;28;20229;-56
2021/12/16 00:33:37;;;;;;;25.17;17.23;;;;;;;8.66;100.00;102575.91;4994155;28;20333;-53
2021/12/16 00:36:05;;;;;;;26.57;17.13;;;;;;;8.63;100.00;102581.03;5012033;28;20252;-55
2021/12/16 00:38:32;;;;;;;27.00;18.23;;;;;;;8.70;100.00;102575.19;5006605;28;20276;-56
2021/12/16 00:40:59;;;;;;;28.27;17.70;;;;;;;8.63;100.00;102581.03;5009787;28;20249;-55
2021/12/16 00:43:34;;;;;;;28.67;19.53;;;;;;;8.76;100.00;102580.66;5009324;28;20332;-54
2021/12/16 00:46:14;;;;;;;28.47;18.10;;;;;;;8.59;100.00;102586.16;5002154;28;20232;-53
2021/12/16 00:49:04;;;;;;;30.17;19.17;;;;;;;8.62;100.00;102580.16;5008483;28;20317;-53
2021/12/16 00:54:15;;;;;;;29.43;16.87;;;;;;;8.68;100.00;102583.00;5002007;28;20256;-54
2021/12/16 00:56:44;;;;;;;27.47;18.83;;;;;;;8.64;100.00;102586.34;5008407;28;20221;-54
2021/12/16 00:59:13;;;;;;;26.87;18.17;;;;;;;8.72;100.00;102587.50;5009139;28;20455;-54
2021/12/16 01:01:48;;;;;;;29.57;18.10;;;;;;;8.54;100.00;102585.09;5009747;28;20229;-54
2021/12/16 01:04:50;;;;;;;27.87;18.67;;;;;;;8.57;100.00;102586.97;5009776;28;20237;-54
2021/12/16 01:07:46;;;;;;;29.07;18.90;;;;;;;8.46;100.00;102585.63;5002297;28;20225;-54
2021/12/16 01:35:13;;;;;;;29.80;18.23;;;;;;;8.20;100.00;102608.19;5006685;28;20240;-63
2021/12/16 01:38:12;;;;;;;29.47;17.83;;;;;;;8.21;100.00;102599.47;5007300;28;20225;-59
2021/12/16 01:51:51;;;;;;;25.20;16.13;;;;;;;8.20;100.00;102587.25;5010796;28;20237;-54
2021/12/16 01:57:15;;;;;;;26.60;17.20;;;;;;;8.41;100.00;102597.69;4994370;28;20239;-55
2021/12/16 01:59:45;;;;;;;26.50;16.70;;;;;;;8.33;100.00;102593.00;5007348;28;20240;-54
2021/12/16 02:02:21;;;;;;;23.80;15.80;;;;;;;8.37;100.00;102599.25;5008047;28;20287;-53
2021/12/16 02:05:09;;;;;;;24.37;15.57;;;;;;;8.48;100.00;102597.97;5008797;28;20229;-54
2021/12/16 02:07:54;;;;;;;22.93;15.70;;;;;;;8.53;100.00;102599.03;5009738;28;20255;-54
2021/12/16 02:10:27;;;;;;;23.33;14.83;;;;;;;8.44;100.00;102598.69;5006765;28;20263;-53
2021/12/16 02:13:10;;;;;;;23.13;14.73;;;;;;;8.56;100.00;102604.41;5006689;28;20232;-55
2021/12/16 02:29:27;;;;;;;15.13;10.57;;;;;;;8.32;100.00;102608.66;5005849;28;20240;-55
2021/12/16 02:31:59;;;;;;;15.33;12.37;;;;;;;8.27;100.00;102610.19;5007807;28;20221;-53
2021/12/16 02:34:43;;;;;;;14.13;9.63;;;;;;;8.41;100.00;102606.41;5004710;28;20717;-54
2021/12/16 02:37:17;;;;;;;19.37;10.53;;;;;;;8.45;100.00;102604.81;5005476;28;20237;-54
2021/12/16 02:39:44;;;;;;;15.17;10.33;;;;;;;8.44;100.00;102596.06;5007164;28;20713;-53
2021/12/16 02:42:16;;;;;;;16.17;10.47;;;;;;;8.34;100.00;102596.50;5005880;28;20304;-53
2021/12/16 02:48:28;;;;;;;16.90;10.10;;;;;;;8.35;100.00;102599.22;5006765;28;20687;-55
2021/12/16 02:50:15;;;;;;;12.83;8.43;;;;;;;8.41;100.00;102595.94;5007401;28;20256;-55
2021/12/16 02:52:43;;;;;;;15.70;10.07;;;;;;;8.44;100.00;102596.06;5006026;28;20253;-55
2021/12/16 02:55:12;;;;;;;13.43;9.20;;;;;;;8.43;100.00;102594.28;5002927;28;20343;-53
2021/12/16 02:57:46;;;;;;;11.43;10.27;;;;;;;8.31;100.00;102592.03;5006519;28;20226;-54
2021/12/16 03:00:15;;;;;;;12.60;8.87;;;;;;;8.37;100.00;102596.63;5005105;28;20225;-54
2021/12/16 03:02:43;;;;;;;15.03;9.17;;;;;;;8.38;100.00;102603.69;5003709;28;20228;-54
2021/12/16 03:05:11;;;;;;;13.13;9.67;;;;;;;8.49;100.00;102597.13;5004511;28;21032;-56
2021/12/16 03:07:37;;;;;;;17.23;9.90;;;;;;;8.53;100.00;102599.03;5006994;28;20304;-56
2021/12/16 03:10:48;;;;;;;10.27;8.30;;;;;;;8.42;100.00;102608.19;5006297;28;20712;-54
2021/12/16 03:13:22;;;;;;;11.40;8.37;;;;;;;8.39;100.00;102608.09;5004688;28;20233;-54
2021/12/16 03:16:00;;;;;;;15.77;8.80;;;;;;;8.47;100.00;102597.91;5005745;28;20236;-54
2021/12/16 03:18:37;;;;;;;17.70;9.47;;;;;;;8.41;100.00;102613.38;5005699;28;20229;-54
2021/12/16 03:21:10;;;;;;;13.83;9.13;;;;;;;8.43;100.00;102612.63;5002115;28;20333;-54
2021/12/16 03:23:50;;;;;;;12.37;8.30;;;;;;;8.40;100.00;102607.25;5007399;28;20229;-56
2021/12/16 03:26:48;;;;;;;13.67;9.27;;;;;;;8.44;100.00;102617.00;5000105;28;20221;-53
2021/12/16 03:32:16;;;;;;;11.90;9.20;;;;;;;8.44;100.00;102623.97;5003223;28;20323;-54
2021/12/16 03:34:56;;;;;;;13.87;7.87;;;;;;;8.36;100.00;102619.31;5004917;28;20304;-55
2021/12/16 03:37:24;;;;;;;13.57;9.80;;;;;;;8.36;100.00;102623.66;5001033;28;20260;-55
2021/12/16 03:39:53;;;;;;;11.37;8.77;;;;;;;8.45;100.00;102618.78;5004210;28;20233;-54
2021/12/16 03:42:25;;;;;;;13.63;9.33;;;;;;;8.41;100.00;102622.13;5013130;28;20236;-54
2021/12/16 03:44:55;;;;;;;13.93;9.37;;;;;;;8.36;100.00;102621.03;5006491;28;20225;-53
2021/12/16 03:47:30;;;;;;;15.97;10.37;;;;;;;8.38;100.00;102623.72;5005717;28;20225;-53
2021/12/16 03:49:57;;;;;;;9.93;8.77;;;;;;;8.40;100.00;102627.31;4998349;28;20298;-55
2021/12/16 03:52:24;;;;;;;14.83;9.13;;;;;;;8.38;100.00;102627.22;5006629;28;20310;-54
2021/12/16 03:54:52;;;;;;;12.30;9.03;;;;;;;8.46;100.00;102628.44;5005768;28;20237;-52
2021/12/16 03:57:22;;;;;;;14.90;9.07;;;;;;;8.44;100.00;102634.44;5005587;28;20251;-54
2021/12/16 03:59:50;;;;;;;13.47;8.77;;;;;;;8.46;100.00;102632.75;5006542;28;20268;-54
2021/12/16 04:02:20;;;;;;;14.23;8.73;;;;;;;8.38;100.00;102629.84;5005322;28;20237;-52
2021/12/16 04:04:48;;;;;;;13.37;8.83;;;;;;;8.39;100.00;102631.66;5006884;28;20360;-53
2021/12/16 04:07:15;;;;;;;12.00;7.50;;;;;;;8.35;100.00;102634.94;5005662;28;20749;-54
2021/12/16 04:09:41;;;;;;;10.97;7.93;;;;;;;8.40;100.00;102627.31;5005458;28;20221;-55
2021/12/16 04:12:12;;;;;;;13.20;8.53;;;;;;;8.45;100.00;102637.09;5007407;28;20301;-55
2021/12/16 04:14:41;;;;;;;10.67;8.53;;;;;;;8.36;100.00;102636.75;5005301;28;20682;-54
2021/12/16 04:17:09;;;;;;;12.53;8.63;;;;;;;8.36;100.00;102634.13;5003712;28;20299;-54
2021/12/16 04:19:36;;;;;;;13.87;9.50;;;;;;;8.37;100.00;102633.28;5003333;28;20673;-54
2021/12/16 04:22:07;;;;;;;11.03;8.30;;;;;;;8.39;100.00;102635.97;5001275;28;20287;-54
2021/12/16 04:24:34;;;;;;;11.10;8.27;;;;;;;8.35;100.00;102624.47;5001818;28;20229;-55
2021/12/16 04:27:01;;;;;;;14.07;9.23;;;;;;;8.43;100.00;102627.44;5003912;28;20244;-53
2021/12/16 04:29:27;;;;;;;13.37;8.97;;;;;;;8.53;100.00;102635.69;5002667;28;20256;-53
2021/12/16 04:31:57;;;;;;;15.43;9.97;;;;;;;8.38;100.00;102635.09;5003387;28;20300;-55
2021/12/16 04:34:24;;;;;;;9.53;7.70;;;;;;;8.30;100.00;102636.50;5005655;28;20311;-54
2021/12/16 04:36:50;;;;;;;13.47;9.63;;;;;;;8.19;100.00;102637.81;5003644;28;20642;-56
2021/12/16 04:39:19;;;;;;;15.17;9.30;;;;;;;8.35;100.00;102634.94;5002969;28;20261;-55
2021/12/16 04:41:45;;;;;;;14.20;9.30;;;;;;;8.45;100.00;102644.97;5003661;28;20229;-53
2021/12/16 04:44:14;;;;;;;15.77;9.23;;;;;;;8.38;100.00;102647.28;5004769;28;20252;-54
2021/12/16 04:46:42;;;;;;;14.27;9.43;;;;;;;8.39;100.00;102647.38;5004617;28;20229;-53
2021/12/16 04:49:12;;;;;;;13.07;9.40;;;;;;;8.25;100.00;102644.16;5007029;28;20260;-54
2021/12/16 04:51:41;;;;;;;14.07;9.47;;;;;;;8.27;100.00;102641.59;5006045;28;20245;-60
2021/12/16 04:54:09;;;;;;;16.50;9.87;;;;;;;8.30;100.00;102649.56;5006789;28;20245;-55
2021/12/16 04:56:36;;;;;;;11.73;8.77;;;;;;;8.28;100.00;102659.06;5007523;28;20217;-54
2021/12/16 04:59:08;;;;;;;13.73;8.83;;;;;;;8.26;100.00;102655.53;5008943;28;20237;-55
2021/12/16 05:01:34;;;;;;;11.47;9.43;;;;;;;8.13;100.00;102665.50;5007318;28;20237;-54
2021/12/16 05:04:01;;;;;;;13.33;9.00;;;;;;;8.11;100.00;102672.41;5029991;22;20280;-55
2021/12/16 05:06:28;;;;;;;15.87;10.10;;;;;;;8.22;100.00;102664.09;5005011;28;20306;-57
2021/12/16 05:08:55;;;;;;;14.00;9.57;;;;;;;8.17;100.00;102676.06;5004340;28;20253;-57
2021/12/16 05:11:21;;;;;;;14.93;9.20;;;;;;;8.16;100.00;102669.97;5006161;28;20265;-59
2021/12/16 05:13:48;;;;;;;14.83;9.20;;;;;;;8.22;100.00;102664.09;5005653;28;20288;-58
2021/12/16 05:16:14;;;;;;;18.63;10.97;;;;;;;8.11;100.00;102682.88;4978518;28;20715;-58
2021/12/16 05:18:42;;;;;;;18.47;11.40;;;;;;;8.11;100.00;102684.59;4987409;28;20237;-58
2021/12/16 05:21:13;;;;;;;12.10;9.43;;;;;;;8.04;100.00;102682.56;4986568;28;20242;-60
2021/12/16 05:26:28;;;;;;;13.97;10.50;;;;;;;7.91;100.00;102683.78;4982708;28;20258;-57
2021/12/16 05:28:57;;;;;;;16.60;11.13;;;;;;;7.86;100.00;102691.44;4963063;28;20239;-57
2021/12/16 05:31:25;;;;;;;16.37;10.30;;;;;;;7.81;100.00;102692.94;4982659;28;20258;-57
2021/12/16 05:33:55;;;;;;;17.80;11.43;;;;;;;7.84;100.00;102692.19;4986996;28;20272;-56
2021/12/16 05:36:21;;;;;;;14.97;10.67;;;;;;;7.73;100.00;102698.69;4983847;28;20269;-56
2021/12/16 05:38:49;;;;;;;13.77;10.43;;;;;;;7.61;100.00;102692.09;4982622;28;20751;-57
2021/12/16 05:41:18;;;;;;;14.87;10.90;;;;;;;7.51;100.00;102695.19;4986370;28;20816;-58
2021/12/16 05:43:45;;;;;;;15.10;10.60;;;;;;;7.38;100.00;102695.47;4983728;28;20269;-56
2021/12/16 05:46:13;;;;;;;14.00;11.17;;;;;;;7.37;100.00;102698.88;4981351;28;20304;-58
2021/12/16 05:48:42;;;;;;;18.13;11.97;;;;;;;7.37;100.00;102698.88;4989206;28;20615;-58
2021/12/16 05:51:12;;;;;;;16.43;11.47;;;;;;;7.35;100.00;102700.56;4988001;28;20239;-57
2021/12/16 05:53:39;;;;;;;17.97;11.67;;;;;;;7.38;100.00;102701.56;4988549;28;20226;-58
2021/12/16 05:56:07;;;;;;;17.77;12.00;;;;;;;7.30;100.00;102713.44;4982726;28;20721;-58
2021/12/16 05:58:36;;;;;;;19.23;11.30;;;;;;;7.40;100.00;102701.63;4984203;28;20711;-58
2021/12/16 06:01:05;;;;;;;15.07;10.80;;;;;;;7.38;100.00;102703.31;4982227;28;20241;-56
2021/12/16 06:03:32;;;;;;;22.27;12.17;;;;;;;7.36;100.00;102718.00;4981990;28;20664;-56
2021/12/16 06:05:59;;;;;;;18.47;12.13;;;;;;;7.33;100.00;102710.91;4977916;28;20253;-58
2021/12/16 06:08:25;;;;;;;19.53;11.43;;;;;;;7.35;100.00;102718.84;4985403;28;20420;-55
2021/12/16 06:11:16;;;;;;;19.93;11.80;;;;;;;7.29;100.00;102715.94;4983049;28;20292;-56
2021/12/16 06:13:58;;;;;;;17.20;11.13;;;;;;;7.20;100.00;102716.44;4986402;28;20249;-58
2021/12/16 06:27:36;;;;;;;16.70;11.10;;;;;;;7.25;100.00;102719.25;4984756;28;20610;-59
2021/12/16 06:30:05;;;;;;;19.60;11.63;;;;;;;7.29;100.00;102723.78;4986964;28;20241;-57
2021/12/16 06:32:31;;;;;;;16.90;11.10;;;;;;;7.36;100.00;102733.69;4983203;28;20260;-57
2021/12/16 06:34:57;;;;;;;18.87;13.17;;;;;;;7.36;100.00;102723.22;4985911;28;20289;-57
2021/12/16 06:37:24;;;;;;;19.33;11.73;;;;;;;7.29;100.00;102721.19;4984432;28;20229;-58
2021/12/16 06:39:51;;;;;;;22.30;12.07;;;;;;;7.36;100.00;102729.34;4986556;28;20308;-58
2021/12/16 06:42:17;;;;;;;16.00;11.40;;;;;;;7.39;100.00;102729.50;4984912;28;20234;-58
2021/12/16 06:44:50;;;;;;;18.87;12.07;;;;;;;7.34;100.00;102736.25;4987238;28;20292;-56
2021/12/16 06:47:22;;;;;;;16.73;11.20;;;;;;;7.42;100.00;102739.19;4986412;28;20238;-57
2021/12/16 06:49:51;;;;;;;16.03;10.90;;;;;;;7.44;100.00;102742.78;4984665;28;20245;-56
2021/12/16 06:52:21;;;;;;;17.57;11.83;;;;;;;7.42;100.00;102739.19;4985917;28;20719;-58
2021/12/16 06:55:07;;;;;;;18.13;11.90;;;;;;;7.44;100.00;102737.56;4986529;28;20328;-57
2021/12/16 06:57:43;;;;;;;21.50;11.00;;;;;;;7.44;100.00;102741.84;4985617;28;20790;-57
2021/12/16 07:00:15;;;;;;;14.90;10.50;;;;;;;7.44;100.00;102748.00;4984417;28;20241;-59
2021/12/16 07:02:58;;;;;;;19.47;11.97;;;;;;;7.49;100.00;102753.44;4984609;28;20233;-58
2021/12/16 07:05:27;;;;;;;15.00;11.40;;;;;;;7.51;100.00;102759.59;4979796;28;20241;-59
2021/12/16 07:07:54;;;;;;;15.13;10.90;;;;;;;7.61;100.00;102761.78;4985399;28;20253;-57
2021/12/16 07:10:21;;;;;;;17.17;12.17;;;;;;;7.51;100.00;102760.53;4984467;28;20334;-57
2021/12/16 07:12:49;;;;;;;14.50;10.20;;;;;;;7.60;100.00;102768.75;4985589;28;20255;-63
2021/12/16 07:15:19;;;;;;;16.07;10.83;;;;;;;7.54;100.00;102778.91;4985476;28;20256;-54
2021/12/16 07:17:47;;;;;;;16.47;11.77;;;;;;;7.54;100.00;102764.97;4984805;28;20730;-57
2021/12/16 07:20:16;;;;;;;16.50;11.67;;;;;;;7.65;100.00;102769.84;4984782;28;20233;-57
2021/12/16 07:22:42;;;;;;;16.83;11.67;;;;;;;7.66;100.00;102770.75;4981025;28;20280;-56
2021/12/16 07:25:09;;;;;;;25.77;13.03;;;;;;;7.67;100.00;102764.69;4979155;28;20320;-60
2021/12/16 07:27:36;;;;;;;14.90;11.33;;;;;;;7.69;100.00;102785.66;4986667;28;20264;-58
2021/12/16 07:30:04;;;;;;;18.10;11.53;;;;;;;7.72;100.00;102791.00;4985999;28;20241;-60
2021/12/16 07:32:30;;;;;;;16.90;12.03;;;;;;;7.74;100.00;102799.84;4984327;28;20304;-58
2021/12/16 07:34:58;;;;;;;15.70;10.77;;;;;;;7.68;100.00;102804.78;4985618;28;20630;-57
2021/12/16 07:37:25;;;;;;;19.53;11.27;;;;;;;7.77;100.00;102813.03;4984091;28;20242;-57
2021/12/16 07:39:52;;;;;;;14.63;10.63;;;;;;;7.76;100.00;102814.78;4984779;28;20900;-59
2021/12/16 07:42:25;;;;;;;16.40;11.23;;;;;;;7.69;100.00;102824.88;4984465;28;20233;-57
2021/12/16 07:44:52;;;;;;;13.47;10.30;;;;;;;7.61;100.00;102820.19;4985478;28;20233;-57
2021/12/16 07:47:19;;;;;;;18.47;10.27;;;;;;;7.73;100.00;102824.19;4981651;28;20223;-57
2021/12/16 07:49:45;;;;;;;19.03;11.63;;;;;;;7.80;100.00;102827.16;4985315;28;21044;-56
2021/12/16 07:52:15;;;;;;;16.03;10.90;;;;;;;7.86;100.00;102818.66;4983584;28;21029;-55
2021/12/16 07:54:42;;;;;;;20.53;10.20;;;;;;;7.78;100.00;102823.56;4981451;28;20268;-58
2021/12/16 07:57:08;;;;;;;16.77;10.37;;;;;;;7.74;100.00;102826.88;4979069;28;20676;-58
2021/12/16 07:59:36;;;;;;;14.67;10.13;;;;;;;7.73;100.00;102819.88;4977687;28;20802;-55
2021/12/16 08:02:04;;;;;;;19.40;10.77;;;;;;;7.76;100.00;102821.72;4981740;28;20237;-57
2021/12/16 08:04:39;;;;;;;18.63;10.97;;;;;;;7.69;100.00;102830.09;4981086;28;20318;-60
2021/12/16 08:07:06;;;;;;;16.67;9.70;;;;;;;7.74;100.00;102821.63;4981738;28;20312;-55
2021/12/16 08:09:35;;;;;;;16.30;11.73;;;;;;;7.85;100.00;102814.25;4979047;28;21620;-57
2021/12/16 08:12:01;;;;;;;13.53;10.47;;;;;;;7.73;100.00;102824.19;4982385;28;20261;-57
2021/12/16 08:14:28;;;;;;;16.40;9.53;;;;;;;7.83;100.00;102821.16;4978516;28;20310;-57
2021/12/16 08:16:54;;;;;;;14.73;9.53;;;;;;;7.89;100.00;102837.09;4978587;28;20241;-57
2021/12/16 08:19:20;;;;;;;16.10;9.73;;;;;;;7.81;100.00;102828.03;4984360;28;20234;-57
2021/12/16 08:21:47;;;;;;;12.37;8.83;;;;;;;7.79;100.00;102850.59;4982643;28;20274;-57
2021/12/16 08:24:16;;;;;;;13.60;9.87;;;;;;;7.82;100.00;102837.66;4986353;28;20258;-57
2021/12/16 08:26:44;;;;;;;14.70;9.63;;;;;;;7.96;100.00;102838.28;4984575;28;20240;-58
2021/12/16 08:29:11;;;;;;;14.00;9.67;;;;;;;7.91;100.00;102848.53;4982834;28;20237;-54
2021/12/16 08:31:37;;;;;;;13.37;9.10;;;;;;;7.91;100.00;102853.78;4981348;28;20325;-53
2021/12/16 08:34:04;;;;;;;13.53;9.80;;;;;;;7.95;100.00;102857.41;4982678;28;20238;-54
2021/12/16 08:36:31;;;;;;;15.27;9.87;;;;;;;7.98;100.00;102847.97;4983305;28;20256;-54
2021/12/16 08:38:58;;;;;;;11.00;8.53;;;;;;;7.97;100.00;102856.66;4985587;28;20413;-54
2021/12/16 08:41:32;;;;;;;14.37;9.50;;;;;;;8.12;100.00;102851.19;4991398;28;20230;-56
2021/12/16 08:44:01;;;;;;;12.53;9.97;;;;;;;8.15;100.00;102860.91;4980695;28;20253;-55
2021/12/16 08:46:31;;;;;;;13.80;9.23;;;;;;;8.17;100.00;102854.00;4982582;28;20266;-57
2021/12/16 08:48:58;;;;;;;15.20;9.40;;;;;;;8.12;100.00;102851.19;4986909;28;20257;-56
2021/12/16 08:51:27;;;;;;;12.57;8.50;;;;;;;8.02;100.00;102855.13;4983087;28;20265;-55
2021/12/16 08:53:54;;;;;;;10.60;9.10;;;;;;;8.12;100.00;102862.56;4974610;28;20273;-52
2021/12/16 08:56:20;;;;;;;12.23;9.03;;;;;;;8.15;100.00;102879.22;4984354;28;20657;-51
2021/12/16 08:58:47;;;;;;;12.93;9.50;;;;;;;8.15;100.00;102872.25;4987052;28;20233;-51
2021/12/16 09:01:17;;;;;;;10.50;8.53;;;;;;;8.23;100.00;102881.31;4982969;28;20265;-48
2021/12/16 09:03:44;;;;;;;14.03;8.17;;;;;;;8.24;100.00;102888.34;4986188;28;20668;-51
2021/12/16 09:06:11;;;;;;;12.37;8.63;;;;;;;8.25;100.00;102894.47;4992976;28;20300;-54
2021/12/16 09:08:37;;;;;;;12.43;8.33;;;;;;;8.27;100.00;102891.09;4985686;28;20296;-53
2021/12/16 09:11:07;;;;;;;10.70;7.90;;;;;;;8.35;100.00;102887.09;4986156;28;20238;-51
2021/12/16 09:13:34;;;;;;;11.00;8.40;;;;;;;8.38;100.00;102899.44;4970735;28;20236;-52
2021/12/16 09:16:04;;;;;;;13.77;8.93;;;;;;;8.34;100.00;102901.00;4986917;28;20273;-51
2021/12/16 09:18:34;;;;;;;15.07;9.50;;;;;;;8.34;100.00;102897.50;4986526;28;20234;-53
2021/12/16 09:21:03;;;;;;;10.27;8.40;;;;;;;8.43;100.00;102902.28;4981766;28;20262;-52
2021/12/16 09:23:30;;;;;;;16.33;10.00;;;;;;;8.35;100.00;102896.66;4981272;28;20238;-52
2021/12/16 09:25:56;;;;;;;14.57;8.40;;;;;;;8.30;100.00;102890.34;4985374;28;20711;-54
2021/12/16 09:28:23;;;;;;;12.80;8.40;;;;;;;8.28;100.00;102894.59;4986448;28;20257;-51
2021/12/16 09:30:50;;;;;;;17.73;8.87;;;;;;;8.33;100.00;102890.47;4986320;28;20230;-53
2021/12/16 09:33:19;;;;;;;15.17;8.57;;;;;;;8.39;100.00;102898.63;4985240;28;20265;-54
2021/12/16 09:35:48;;;;;;;10.03;7.33;;;;;;;8.33;100.00;102908.78;4984504;28;20707;-54
2021/12/16 09:38:16;;;;;;;16.40;8.83;;;;;;;8.32;100.00;102914.88;4985656;28;20237;-52
2021/12/16 09:40:49;;;;;;;9.87;7.70;;;;;;;8.29;100.00;102920.84;4989374;28;20229;-51
2021/12/16 09:43:17;;;;;;;10.90;8.90;;;;;;;8.34;100.00;102921.94;4982914;28;20236;-54
2021/12/16 09:45:43;;;;;;;11.93;7.17;;;;;;;8.32;100.00;102935.81;4979240;28;20257;-53
2021/12/16 09:48:10;;;;;;;11.33;7.30;;;;;;;8.39;100.00;102929.13;4986299;28;20707;-50
2021/12/16 09:50:37;;;;;;;14.60;8.07;;;;;;;8.58;100.00;102932.59;4977641;28;20305;-49
2021/12/16 09:53:05;;;;;;;9.53;7.83;;;;;;;8.48;100.00;102925.19;4972954;28;20234;-54
2021/12/16 09:55:33;;;;;;;8.23;7.23;;;;;;;8.42;100.00;102929.25;4982812;28;20258;-53
2021/12/16 09:57:59;;;;;;;8.87;7.33;;;;;;;8.37;100.00;102921.19;4986503;28;20225;-53
2021/12/16 10:00:28;;;;;;;13.03;8.27;;;;;;;8.50;100.00;102915.69;4981290;28;20309;-52
2021/12/16 10:02:57;;;;;;;10.93;7.40;;;;;;;8.50;100.00;102913.06;4985373;28;20226;-52
2021/12/16 10:05:24;;;;;;;12.30;8.00;;;;;;;8.60;100.00;102904.78;4989133;28;20250;-51
2021/12/16 10:07:50;;;;;;;11.80;7.23;;;;;;;8.56;100.00;102902.88;4982079;28;20254;-51
2021/12/16 10:10:23;;;;;;;12.13;7.37;;;;;;;8.52;100.00;102900.91;4983741;28;20308;-53
2021/12/16 10:12:51;;;;;;;9.30;6.97;;;;;;;8.50;100.00;102920.03;4986441;28;20226;-53
2021/12/16 10:18:13;;;;;;;11.30;7.47;;;;;;;8.55;100.00;102908.00;4981426;28;20240;-54
2021/12/16 10:20:44;;;;;;;12.13;9.00;;;;;;;8.55;100.00;102910.63;4982838;28;20766;-52
2021/12/16 10:23:15;;;;;;;12.70;8.90;;;;;;;8.59;100.00;102918.66;4989348;28;20250;-52
2021/12/16 10:25:45;;;;;;;10.47;7.30;;;;;;;8.75;100.00;102927.19;4977904;28;20239;-54
2021/12/16 10:28:14;;;;;;;12.43;7.43;;;;;;;8.75;100.00;102921.94;4981220;28;20253;-51
2021/12/16 10:30:50;;;;;;;12.33;7.63;;;;;;;8.74;100.00;102925.38;4984884;28;20313;-54
2021/12/16 10:33:28;;;;;;;9.50;6.83;;;;;;;8.75;100.00;102922.84;4979490;28;20252;-54
2021/12/16 10:36:01;;;;;;;9.10;6.90;;;;;;;8.81;100.00;102919.59;4972862;28;20254;-52
2021/12/16 10:38:27;;;;;;;9.43;7.63;;;;;;;8.76;100.00;102915.88;4983912;28;20261;-50
2021/12/16 10:40:57;;;;;;;11.17;7.03;;;;;;;8.87;100.00;102922.44;4984482;28;20292;-52
2021/12/16 10:43:29;;;;;;;7.10;5.83;;;;;;;8.81;100.00;102924.84;4980743;28;20646;-51
2021/12/16 10:45:59;;;;;;;9.03;7.07;;;;;;;8.77;100.00;102920.28;4980333;28;20241;-51
2021/12/16 10:48:28;;;;;;;7.73;6.27;;;;;;;8.72;100.00;102924.44;4983402;28;20257;-55
2021/12/16 10:51:02;;;;;;;8.10;6.13;;;;;;;8.79;100.00;102921.25;4982644;28;20258;-52
2021/12/16 10:54:03;;;;;;;10.27;6.40;;;;;;;8.75;100.00;102924.56;4983101;28;20892;-53
2021/12/16 10:56:35;;;;;;;8.73;6.23;;;;;;;8.92;100.00;102927.91;4903830;29;20492;-54
2021/12/16 10:59:05;;;;;;;8.73;5.70;;;;;;;8.84;100.00;102922.31;4966597;28;20234;-54
2021/12/16 11:01:39;;;;;;;9.50;5.87;;;;;;;8.86;100.00;102931.16;4980964;28;20999;-52
2021/12/16 11:04:08;;;;;;;7.80;6.07;;;;;;;8.84;100.00;102932.78;4981762;28;20234;-51
2021/12/16 11:06:37;;;;;;;7.70;5.83;;;;;;;8.99;100.00;102933.44;4979865;28;20237;-51
2021/12/16 11:09:27;;;;;;;11.83;6.47;;;;;;;9.04;100.00;102937.13;4981138;28;20261;-53
2021/12/16 11:12:08;;;;;;;7.90;5.23;;;;;;;9.05;100.00;102933.66;4980779;28;20258;-54
2021/12/16 11:14:35;;;;;;;6.87;5.63;;;;;;;9.12;100.00;102947.03;4984093;28;20261;-54
2021/12/16 11:17:07;;;;;;;8.23;5.23;;;;;;;9.22;100.00;102943.94;4979844;28;20269;-55
2021/12/16 11:19:46;;;;;;;6.53;4.63;;;;;;;9.25;100.00;102944.97;4981946;28;20835;-52
2021/12/16 11:22:16;;;;;;;8.03;5.50;;;;;;;9.31;100.00;102929.50;4974100;28;20261;-55
2021/12/16 11:24:42;;;;;;;8.47;5.53;;;;;;;9.28;100.00;102921.50;4972550;28;20896;-55
2021/12/16 11:27:37;;;;;;;7.30;5.63;;;;;;;9.37;100.00;102923.59;4975758;28;20707;-54
2021/12/16 11:30:24;;;;;;;6.00;4.50;;;;;;;9.37;100.00;102931.47;4931881;28;20237;-55
2021/12/16 11:32:53;;;;;;;7.17;5.37;;;;;;;9.36;100.00;102937.53;4980639;28;20227;-53
2021/12/16 11:35:30;;;;;;;5.23;4.73;;;;;;;9.42;100.00;102929.91;4980615;28;20296;-51
2021/12/16 11:37:59;;;;;;;7.40;4.80;;;;;;;9.45;100.00;102940.53;4988726;28;20284;-52
2021/12/16 11:40:26;;;;;;;6.03;4.43;;;;;;;9.32;100.00;102930.38;4988672;28;20261;-52
2021/12/16 11:43:02;;;;;;;4.87;4.20;;;;;;;9.33;100.00;102932.16;4988658;28;20225;-50
2021/12/16 11:45:34;;;;;;;7.83;4.23;;;;;;;9.24;100.00;102934.44;4981026;28;20762;-52
2021/12/16 11:48:00;;;;;;;5.87;5.27;;;;;;;9.36;100.00;102944.50;4970842;28;20259;-52
2021/12/16 11:50:33;;;;;;;6.33;5.43;;;;;;;9.45;100.00;102943.16;4972312;28;20262;-50
2021/12/16 11:53:00;;;;;;;5.90;4.87;;;;;;;9.34;100.00;102941.84;4977278;28;20245;-50
2021/12/16 11:55:26;;;;;;;6.50;4.90;;;;;;;9.36;100.00;102955.88;4977058;28;20246;-52
2021/12/16 11:58:01;;;;;;;8.03;4.90;;;;;;;9.32;100.00;102957.47;4983356;28;20304;-52
2021/12/16 12:00:30;;;;;;;5.00;4.00;;;;;;;9.46;100.00;102950.16;5006477;22;20242;-54
2021/12/16 12:02:59;;;;;;;4.93;4.43;;;;;;;9.52;100.00;102950.41;5038172;28;20315;-54
2021/12/16 12:05:29;;;;;;;5.93;3.57;;;;;;;9.54;100.00;102953.06;5042434;28;20259;-54
2021/12/16 12:07:59;;;;;;;5.30;3.60;;;;;;;9.59;100.00;102962.03;5038104;28;20232;-52
2021/12/16 12:10:40;;;;;;;4.83;3.30;;;;;;;9.60;100.00;102957.69;5025784;28;20264;-54
2021/12/16 12:13:07;;;;;;;5.70;3.10;;;;;;;9.70;100.00;102959.81;5023017;28;20317;-54
2021/12/16 12:15:36;;;;;;;3.90;3.40;;;;;;;9.53;100.00;102967.03;5025415;28;20732;-53
2021/12/16 12:18:05;;;;;;;3.43;3.13;;;;;;;9.43;100.00;102957.91;5016200;28;20256;-53
2021/12/16 12:20:33;;;;;;;2.43;2.23;;;;;;;9.43;100.00;102964.88;5027229;28;20256;-54
2021/12/16 12:23:00;;;;;;;2.97;2.73;;;;;;;9.36;100.00;102979.47;5031071;28;20233;-54
2021/12/16 12:25:27;;;;;;;4.27;2.50;;;;;;;9.34;100.00;102978.53;5020643;28;20680;-54
2021/12/16 12:27:53;;;;;;;4.73;2.73;;;;;;;9.46;100.00;102981.63;5028232;28;20240;-53
2021/12/16 12:30:21;;;;;;;7.70;2.60;;;;;;;9.51;99.83;102969.63;5028040;28;20712;-52
2021/12/16 12:32:51;;;;;;;3.40;2.50;;;;;;;9.37;100.00;102976.03;5021573;28;20616;-54
2021/12/16 12:35:20;;;;;;;4.87;2.60;;;;;;;9.31;100.00;102963.56;5025358;28;20748;-53
2021/12/16 12:37:49;;;;;;;3.93;2.23;;;;;;;9.45;97.99;102955.38;5024712;28;20236;-54
2021/12/16 12:40:23;;;;;;;2.40;2.20;;;;;;;9.29;98.58;102965.22;5020966;28;20267;-52
2021/12/16 12:42:51;;;;;;;2.57;2.13;;;;;;;9.22;99.31;102965.81;5026691;28;20256;-53
2021/12/16 12:45:19;;;;;;;3.30;2.20;;;;;;;9.29;98.53;102966.94;5022074;28;20358;-52
2021/12/16 12:47:50;;;;;;;4.30;3.00;;;;;;;9.31;98.77;102965.31;5027093;28;20228;-52
2021/12/16 12:50:19;;;;;;;4.97;3.10;;;;;;;9.22;99.12;102964.91;5021392;28;20614;-52
2021/12/16 12:52:49;;;;;;;4.73;2.97;;;;;;;9.24;99.22;102950.16;5020084;28;20232;-53
2021/12/16 12:55:19;;;;;;;7.93;3.20;;;;;;;9.07;100.00;102952.97;5013810;28;20237;-53
2021/12/16 12:57:48;;;;;;;7.03;3.77;;;;;;;9.05;100.00;102952.00;5024634;28;20256;-53
2021/12/16 13:00:25;;;;;;;4.70;3.00;;;;;;;9.03;100.00;102953.69;5021984;28;20256;-53
2021/12/16 13:02:58;;;;;;;5.53;2.97;;;;;;;9.08;100.00;102956.50;5029103;28;20771;-54
2021/12/16 13:05:25;;;;;;;8.03;2.90;;;;;;;9.17;100.00;102953.38;5028664;28;20822;-54
2021/12/16 13:07:55;;;;;;;4.97;2.77;;;;;;;9.09;100.00;102953.06;5026638;28;20244;-54
2021/12/16 13:10:24;;;;;;;5.80;3.80;;;;;;;9.29;100.00;102951.22;5023296;28;20233;-53
2021/12/16 13:12:56;;;;;;;6.87;3.10;;;;;;;9.35;99.20;102950.59;5021888;28;20225;-54
2021/12/16 13:15:36;;;;;;;4.17;3.77;;;;;;;9.27;98.04;102950.28;5014495;28;20244;-52
2021/12/16 13:24:03;;;;;;;5.63;2.50;;;;;;;9.10;99.74;102948.72;5014910;28;20326;-54